Time;durP1;ratioP1;P1;durP2;ratioP2;P2;SDS_P1;SDS_P2;PMS_P1;PMS_P2;Temp;Humidity;BMP_temperature;BMP_pressure;BME280_temperature;BME280_humidity;BME280_pressure;Samples;Min_cycle;Max_cycle;Signal;HPM_P1;HPM_P2
2021/07/18 00:02:01;;;;;;;2.97;2.00;;;;;;;;;;5010387;28;20108;-79
2021/07/18 00:04:27;;;;;;;3.47;1.80;;;;;;;;;;4994355;28;20121;-79
2021/07/18 00:06:52;;;;;;;5.15;2.42;;;;;;;;;;4992944;28;20042;-80
2021/07/18 00:09:18;;;;;;;3.03;1.75;;;;;;;;;;5010811;28;20416;-84
2021/07/18 00:11:43;;;;;;;3.83;2.70;;;;;;;;;;5011364;28;20034;-83
2021/07/18 00:14:09;;;;;;;3.00;1.40;;;;;;;;;;4990108;28;20097;-83
2021/07/18 00:16:35;;;;;;;6.25;2.10;;;;;;;;;;4990863;28;20132;-83
2021/07/18 00:19:00;;;;;;;4.15;1.83;;;;;;;;;;5006891;28;20081;-83
2021/07/18 00:21:26;;;;;;;3.00;1.90;;;;;;;;;;4990692;28;20035;-83
2021/07/18 00:23:52;;;;;;;3.58;1.98;;;;;;;;;;4990687;28;20041;-83
2021/07/18 00:26:18;;;;;;;5.22;2.40;;;;;;;;;;5006655;28;20076;-84
2021/07/18 00:28:44;;;;;;;2.65;1.60;;;;;;;;;;4991947;28;20190;-83
2021/07/18 00:31:09;;;;;;;2.63;1.50;;;;;;;;;;5010590;28;20022;-83
2021/07/18 00:33:35;;;;;;;3.75;2.00;;;;;;;;;;5008813;28;20038;-84
2021/07/18 00:36:00;;;;;;;3.42;1.73;;;;;;;;;;5002889;28;20462;-84
2021/07/18 00:38:26;;;;;;;4.32;2.25;;;;;;;;;;4961328;28;20097;-84
2021/07/18 00:40:51;;;;;;;3.03;1.83;;;;;;;;;;5025312;28;20038;-84
2021/07/18 00:43:18;;;;;;;4.25;1.88;;;;;;;;;;5008724;28;20045;-84
2021/07/18 00:45:43;;;;;;;3.15;1.75;;;;;;;;;;5011416;28;20084;-82
2021/07/18 00:48:09;;;;;;;3.00;1.55;;;;;;;;;;5029139;28;20034;-82
2021/07/18 00:50:34;;;;;;;2.78;1.40;;;;;;;;;;5012379;28;20048;-81
2021/07/18 00:53:00;;;;;;;2.75;1.95;;;;;;;;;;5009651;28;20041;-84
2021/07/18 00:55:26;;;;;;;2.28;1.42;;;;;;;;;;4995662;28;20055;-84
2021/07/18 00:57:51;;;;;;;3.35;1.45;;;;;;;;;;5016196;28;20033;-83
2021/07/18 01:00:18;;;;;;;3.47;1.60;;;;;;;;;;4964665;28;20128;-84
2021/07/18 01:02:44;;;;;;;2.95;1.48;;;;;;;;;;5013939;28;20034;-84
2021/07/18 01:05:11;;;;;;;3.53;1.60;;;;;;;;;;5047219;28;20040;-84
2021/07/18 01:07:37;;;;;;;4.78;1.60;;;;;;;;;;5013610;28;20042;-84
2021/07/18 01:10:04;;;;;;;3.35;1.70;;;;;;;;;;4996917;28;20036;-84
2021/07/18 01:12:30;;;;;;;3.72;1.67;;;;;;;;;;4981229;28;20080;-84
2021/07/18 01:14:55;;;;;;;2.80;1.50;;;;;;;;;;5030341;28;20038;-83
2021/07/18 01:17:22;;;;;;;3.17;1.60;;;;;;;;;;5013667;28;20040;-84
2021/07/18 01:19:47;;;;;;;4.15;1.45;;;;;;;;;;5013908;28;20397;-83
2021/07/18 01:22:13;;;;;;;4.20;1.58;;;;;;;;;;4981136;28;20562;-84
2021/07/18 01:24:39;;;;;;;2.95;1.27;;;;;;;;;;4997220;28;20128;-83
2021/07/18 01:27:05;;;;;;;3.80;2.03;;;;;;;;;;4981078;28;20133;-84
2021/07/18 01:29:32;;;;;;;3.63;1.73;;;;;;;;;;5013373;28;20053;-83
2021/07/18 01:31:58;;;;;;;3.03;1.42;;;;;;;;;;4981019;28;20026;-83
2021/07/18 01:34:24;;;;;;;3.03;1.80;;;;;;;;;;4981029;28;20030;-85
2021/07/18 01:36:51;;;;;;;3.10;1.50;;;;;;;;;;4985174;28;20112;-84
2021/07/18 01:39:16;;;;;;;5.60;1.73;;;;;;;;;;5012956;28;20040;-82
2021/07/18 01:41:43;;;;;;;3.85;1.73;;;;;;;;;;5007558;28;20026;-82
2021/07/18 01:44:08;;;;;;;2.75;1.27;;;;;;;;;;4993624;28;20039;-82
2021/07/18 01:46:35;;;;;;;3.13;1.58;;;;;;;;;;5010099;28;20408;-82
2021/07/18 01:49:01;;;;;;;2.10;1.10;;;;;;;;;;4993725;28;20049;-81
2021/07/18 01:51:28;;;;;;;2.33;1.27;;;;;;;;;;5009619;28;20563;-80
2021/07/18 01:53:57;;;;;;;3.45;1.42;;;;;;;;;;4998189;28;20389;-82
2021/07/18 01:56:22;;;;;;;4.45;1.70;;;;;;;;;;4997246;28;20116;-80
2021/07/18 01:58:48;;;;;;;3.35;1.83;;;;;;;;;;5013084;28;20125;-80
2021/07/18 02:01:17;;;;;;;2.38;1.33;;;;;;;;;;4992731;28;20117;-80
2021/07/18 02:03:43;;;;;;;2.90;1.38;;;;;;;;;;5009733;28;20125;-80
2021/07/18 02:06:08;;;;;;;2.97;1.45;;;;;;;;;;5018754;28;20588;-80
2021/07/18 02:08:34;;;;;;;2.17;1.17;;;;;;;;;;5012545;28;20044;-80
2021/07/18 02:10:59;;;;;;;2.78;1.60;;;;;;;;;;5029096;28;20042;-80
2021/07/18 02:13:25;;;;;;;2.72;1.60;;;;;;;;;;5000818;28;20053;-80
2021/07/18 02:15:50;;;;;;;3.67;1.52;;;;;;;;;;5009473;28;20048;-80
2021/07/18 02:18:16;;;;;;;2.92;1.50;;;;;;;;;;5009323;28;20065;-80
2021/07/18 02:20:42;;;;;;;4.55;1.30;;;;;;;;;;4992657;28;20160;-80
2021/07/18 02:23:07;;;;;;;4.18;1.52;;;;;;;;;;4992937;28;20038;-80
2021/07/18 02:25:33;;;;;;;2.78;1.45;;;;;;;;;;4993094;28;20034;-81
2021/07/18 02:27:59;;;;;;;2.17;1.42;;;;;;;;;;5009489;28;20042;-80
2021/07/18 02:30:26;;;;;;;3.63;1.75;;;;;;;;;;5023836;28;20108;-81
2021/07/18 02:32:51;;;;;;;4.20;1.52;;;;;;;;;;4979863;28;20038;-80
2021/07/18 02:35:17;;;;;;;3.08;1.40;;;;;;;;;;5011666;28;20096;-80
2021/07/18 02:37:43;;;;;;;3.58;1.52;;;;;;;;;;5000516;28;20077;-81
2021/07/18 02:40:09;;;;;;;3.30;1.25;;;;;;;;;;4995594;28;20030;-80
2021/07/18 02:42:35;;;;;;;2.30;1.50;;;;;;;;;;4995140;28;20095;-80
2021/07/18 02:45:00;;;;;;;5.35;1.83;;;;;;;;;;5028324;28;20054;-80
2021/07/18 02:47:26;;;;;;;2.45;1.73;;;;;;;;;;5027419;28;20109;-80
2021/07/18 02:49:51;;;;;;;3.15;1.65;;;;;;;;;;5044975;28;20049;-80
2021/07/18 02:52:17;;;;;;;3.25;1.23;;;;;;;;;;5027897;28;20038;-80
2021/07/18 02:54:45;;;;;;;2.00;1.20;;;;;;;;;;5027650;28;20029;-80
2021/07/18 02:57:10;;;;;;;2.50;1.50;;;;;;;;;;5028602;28;20030;-80
2021/07/18 02:59:36;;;;;;;2.63;1.17;;;;;;;;;;5028212;28;20095;-80
2021/07/18 03:02:02;;;;;;;1.98;1.30;;;;;;;;;;5027755;28;20389;-80
2021/07/18 03:04:28;;;;;;;3.30;1.50;;;;;;;;;;5044971;28;20555;-80
2021/07/18 03:06:54;;;;;;;3.88;1.73;;;;;;;;;;5027639;28;20030;-80
2021/07/18 03:09:23;;;;;;;3.35;1.50;;;;;;;;;;5027816;28;20060;-80
2021/07/18 03:11:51;;;;;;;2.80;1.50;;;;;;;;;;5044627;28;20072;-80
2021/07/18 03:14:17;;;;;;;2.78;1.40;;;;;;;;;;5027585;28;20056;-80
2021/07/18 03:16:43;;;;;;;3.05;1.80;;;;;;;;;;5011423;28;20091;-80
2021/07/18 03:19:09;;;;;;;3.35;1.50;;;;;;;;;;5044158;28;20033;-81
2021/07/18 03:21:34;;;;;;;3.33;1.50;;;;;;;;;;5027585;28;20169;-79
2021/07/18 03:24:04;;;;;;;2.70;1.08;;;;;;;;;;5044333;28;20033;-80
2021/07/18 03:26:29;;;;;;;2.78;1.17;;;;;;;;;;5044524;28;20046;-80
2021/07/18 03:28:54;;;;;;;4.40;1.52;;;;;;;;;;5027273;28;20113;-80
2021/07/18 03:31:20;;;;;;;3.17;1.20;;;;;;;;;;4978512;28;20069;-80
2021/07/18 03:33:45;;;;;;;1.90;1.30;;;;;;;;;;4978411;28;20037;-80
2021/07/18 03:36:11;;;;;;;3.88;1.85;;;;;;;;;;4980929;28;20055;-80
2021/07/18 03:38:36;;;;;;;2.95;1.50;;;;;;;;;;5013265;28;20137;-80
2021/07/18 03:41:02;;;;;;;4.22;1.38;;;;;;;;;;5010770;28;20034;-80
2021/07/18 03:43:27;;;;;;;4.35;1.95;;;;;;;;;;5010211;28;20038;-80
2021/07/18 03:45:53;;;;;;;2.67;1.30;;;;;;;;;;5011062;28;20556;-80
2021/07/18 03:48:18;;;;;;;3.88;1.40;;;;;;;;;;4994349;28;20554;-80
2021/07/18 03:50:44;;;;;;;2.25;1.38;;;;;;;;;;4978331;28;20030;-79
2021/07/18 03:53:09;;;;;;;2.13;1.23;;;;;;;;;;5010574;28;20038;-80
2021/07/18 03:55:35;;;;;;;3.05;1.40;;;;;;;;;;4978256;28;20046;-80
2021/07/18 03:58:00;;;;;;;2.50;1.70;;;;;;;;;;4978447;28;20034;-80
2021/07/18 04:00:26;;;;;;;3.30;1.40;;;;;;;;;;4994248;28;20041;-80
2021/07/18 04:02:51;;;;;;;2.78;1.67;;;;;;;;;;4993514;28;20034;-80
2021/07/18 04:05:17;;;;;;;2.60;1.58;;;;;;;;;;4990855;28;20054;-80
2021/07/18 04:07:42;;;;;;;3.58;1.83;;;;;;;;;;5007332;28;20089;-79
2021/07/18 04:10:08;;;;;;;3.15;1.70;;;;;;;;;;5007212;28;20116;-80
2021/07/18 04:12:34;;;;;;;2.67;1.65;;;;;;;;;;4990881;28;20033;-80
2021/07/18 04:14:59;;;;;;;3.10;1.60;;;;;;;;;;5012366;28;20050;-82
2021/07/18 04:17:25;;;;;;;2.40;1.50;;;;;;;;;;5010429;28;20042;-80
2021/07/18 04:19:50;;;;;;;3.58;1.58;;;;;;;;;;5008744;28;20046;-81
2021/07/18 04:22:16;;;;;;;2.65;1.30;;;;;;;;;;4995066;28;20072;-80
2021/07/18 04:24:41;;;;;;;3.15;1.40;;;;;;;;;;4996171;28;20042;-81
2021/07/18 04:27:07;;;;;;;2.47;1.45;;;;;;;;;;4997676;28;20038;-80
2021/07/18 04:29:32;;;;;;;3.72;1.65;;;;;;;;;;5016103;28;20046;-80
2021/07/18 04:31:58;;;;;;;5.20;2.13;;;;;;;;;;4998792;28;20038;-81
2021/07/18 04:34:24;;;;;;;3.33;1.83;;;;;;;;;;5014507;28;20074;-80
2021/07/18 04:36:50;;;;;;;3.60;1.70;;;;;;;;;;5021709;28;20025;-80
2021/07/18 04:39:15;;;;;;;3.25;2.00;;;;;;;;;;5001309;28;20041;-80
2021/07/18 04:41:41;;;;;;;4.18;1.52;;;;;;;;;;5017332;28;20041;-80
2021/07/18 04:44:06;;;;;;;3.60;1.42;;;;;;;;;;5034202;28;20087;-80
2021/07/18 04:46:32;;;;;;;2.83;1.42;;;;;;;;;;4981230;28;20037;-80
2021/07/18 04:48:57;;;;;;;3.85;2.08;;;;;;;;;;5014262;28;20042;-80
2021/07/18 04:51:23;;;;;;;3.40;1.55;;;;;;;;;;4997697;28;20514;-80
2021/07/18 04:53:48;;;;;;;2.80;1.40;;;;;;;;;;4998378;28;20038;-80
2021/07/18 04:56:14;;;;;;;2.95;1.52;;;;;;;;;;5013342;28;20408;-80
2021/07/18 04:58:40;;;;;;;3.45;2.15;;;;;;;;;;5030691;28;20091;-80
2021/07/18 05:01:07;;;;;;;2.78;1.50;;;;;;;;;;5030127;28;20141;-80
2021/07/18 05:03:33;;;;;;;3.22;2.05;;;;;;;;;;5030797;28;20038;-81
2021/07/18 05:05:59;;;;;;;2.40;1.17;;;;;;;;;;4994091;28;20030;-80
2021/07/18 05:08:24;;;;;;;6.20;1.90;;;;;;;;;;5010470;28;20038;-80
2021/07/18 05:10:49;;;;;;;3.67;1.42;;;;;;;;;;5000441;28;20062;-80
2021/07/18 05:13:15;;;;;;;2.55;1.75;;;;;;;;;;4994098;28;20039;-80
2021/07/18 05:15:40;;;;;;;3.58;1.75;;;;;;;;;;5027229;28;20116;-80
2021/07/18 05:18:13;;;;;;;2.75;1.33;;;;;;;;;;4994102;28;20065;-80
2021/07/18 05:20:39;;;;;;;2.20;1.25;;;;;;;;;;5013040;28;20049;-80
2021/07/18 05:23:04;;;;;;;3.60;1.60;;;;;;;;;;4996563;28;20520;-81
2021/07/18 05:25:30;;;;;;;3.30;1.48;;;;;;;;;;4996351;28;20516;-80
2021/07/18 05:27:55;;;;;;;3.78;1.42;;;;;;;;;;5030535;28;20072;-80
2021/07/18 05:30:21;;;;;;;2.92;1.65;;;;;;;;;;5029643;28;20034;-80
2021/07/18 05:32:46;;;;;;;2.85;1.60;;;;;;;;;;5025886;28;20038;-80
2021/07/18 05:35:12;;;;;;;3.13;1.60;;;;;;;;;;5026756;28;20035;-80
2021/07/18 05:37:38;;;;;;;2.88;1.70;;;;;;;;;;5012103;28;20168;-80
2021/07/18 05:40:05;;;;;;;2.70;1.85;;;;;;;;;;5013160;28;20108;-80
2021/07/18 05:42:30;;;;;;;2.90;1.55;;;;;;;;;;5012874;28;20049;-80
2021/07/18 05:44:56;;;;;;;4.25;1.83;;;;;;;;;;4980344;28;20050;-80
2021/07/18 05:47:21;;;;;;;3.47;1.77;;;;;;;;;;4996741;28;20049;-80
2021/07/18 05:49:47;;;;;;;5.38;1.73;;;;;;;;;;4980762;28;20034;-80
2021/07/18 05:52:12;;;;;;;3.38;1.50;;;;;;;;;;4995877;28;20100;-80
2021/07/18 05:54:38;;;;;;;2.83;1.50;;;;;;;;;;4996976;28;20107;-80
2021/07/18 05:57:04;;;;;;;6.00;1.75;;;;;;;;;;4979807;28;20041;-80
2021/07/18 05:59:30;;;;;;;3.65;1.98;;;;;;;;;;5012997;28;20068;-81
2021/07/18 06:01:55;;;;;;;3.47;2.00;;;;;;;;;;4996783;28;20038;-80
2021/07/18 06:04:21;;;;;;;2.85;1.92;;;;;;;;;;4980338;28;20120;-80
2021/07/18 06:06:47;;;;;;;3.13;1.55;;;;;;;;;;5012339;28;20120;-80
2021/07/18 06:09:13;;;;;;;3.92;1.70;;;;;;;;;;5012368;28;20060;-80
2021/07/18 06:11:38;;;;;;;3.45;1.85;;;;;;;;;;5012471;28;20041;-80
2021/07/18 06:14:04;;;;;;;3.15;1.92;;;;;;;;;;5012645;28;20100;-80
2021/07/18 06:16:29;;;;;;;4.50;1.85;;;;;;;;;;4994425;28;20037;-80
2021/07/18 06:18:55;;;;;;;5.60;1.67;;;;;;;;;;5020551;28;20135;-80
2021/07/18 06:21:20;;;;;;;3.63;2.13;;;;;;;;;;5003230;28;20037;-80
2021/07/18 06:23:49;;;;;;;4.43;2.13;;;;;;;;;;4989190;28;20041;-82
2021/07/18 06:26:15;;;;;;;5.30;1.92;;;;;;;;;;4999206;28;20025;-81
2021/07/18 06:28:40;;;;;;;4.15;1.88;;;;;;;;;;4996892;28;20125;-80
2021/07/18 06:31:06;;;;;;;4.15;2.20;;;;;;;;;;5029128;28;20041;-79
2021/07/18 06:33:32;;;;;;;2.95;1.80;;;;;;;;;;5012480;28;20034;-82
2021/07/18 06:35:57;;;;;;;6.57;2.40;;;;;;;;;;5012613;28;20030;-82
2021/07/18 06:38:23;;;;;;;6.10;2.42;;;;;;;;;;4983213;28;20096;-82
2021/07/18 06:40:48;;;;;;;5.03;1.88;;;;;;;;;;4978414;28;20033;-83
2021/07/18 06:43:14;;;;;;;5.03;3.08;;;;;;;;;;5023480;28;20044;-83
2021/07/18 06:45:40;;;;;;;3.47;2.35;;;;;;;;;;5014534;28;20535;-81
2021/07/18 06:48:05;;;;;;;4.22;2.85;;;;;;;;;;4983169;28;20050;-82
2021/07/18 06:50:31;;;;;;;3.95;2.03;;;;;;;;;;4976144;28;20034;-82
2021/07/18 06:52:56;;;;;;;4.03;2.35;;;;;;;;;;5013727;28;20071;-82
2021/07/18 06:55:22;;;;;;;3.50;2.20;;;;;;;;;;5048257;28;20038;-83
2021/07/18 06:57:51;;;;;;;7.38;2.90;;;;;;;;;;5024216;28;20030;-82
2021/07/18 07:00:17;;;;;;;4.90;2.13;;;;;;;;;;4996039;28;20050;-82
2021/07/18 07:02:43;;;;;;;4.35;2.40;;;;;;;;;;5018518;28;20476;-82
2021/07/18 07:05:09;;;;;;;4.30;2.53;;;;;;;;;;5036162;28;20029;-82
2021/07/18 07:07:34;;;;;;;11.48;4.97;;;;;;;;;;5015146;28;20037;-82
2021/07/18 07:10:00;;;;;;;8.98;5.63;;;;;;;;;;5014342;28;20037;-82
2021/07/18 07:12:25;;;;;;;7.72;5.50;;;;;;;;;;5012391;28;20056;-81
2021/07/18 07:14:51;;;;;;;9.30;5.95;;;;;;;;;;5025034;28;20042;-82
2021/07/18 07:17:16;;;;;;;5.72;4.50;;;;;;;;;;5030227;28;20033;-82
2021/07/18 07:19:42;;;;;;;7.75;4.75;;;;;;;;;;5014116;28;20041;-82
2021/07/18 07:22:08;;;;;;;6.68;4.22;;;;;;;;;;5024003;28;20404;-81
2021/07/18 07:24:33;;;;;;;7.03;5.13;;;;;;;;;;4979667;28;20026;-81
2021/07/18 07:26:59;;;;;;;7.00;5.28;;;;;;;;;;5011171;28;20044;-82
2021/07/18 07:29:24;;;;;;;8.20;5.30;;;;;;;;;;4980071;28;20113;-82
2021/07/18 07:31:50;;;;;;;6.50;4.22;;;;;;;;;;4959468;28;20064;-81
2021/07/18 07:34:15;;;;;;;6.32;4.28;;;;;;;;;;4991628;28;20039;-82
2021/07/18 07:36:41;;;;;;;7.28;4.50;;;;;;;;;;4984123;28;20030;-81
2021/07/18 07:39:06;;;;;;;9.75;5.55;;;;;;;;;;5031021;28;20037;-82
2021/07/18 07:41:32;;;;;;;8.80;4.57;;;;;;;;;;4997541;28;20083;-82
2021/07/18 07:43:59;;;;;;;6.22;4.35;;;;;;;;;;5030863;28;20052;-81
2021/07/18 07:46:25;;;;;;;9.30;4.63;;;;;;;;;;4998349;28;20140;-82
2021/07/18 07:48:50;;;;;;;8.65;4.70;;;;;;;;;;5001710;28;20752;-82
2021/07/18 07:51:16;;;;;;;9.00;5.50;;;;;;;;;;4978496;28;20059;-81
2021/07/18 07:53:41;;;;;;;7.30;3.95;;;;;;;;;;5029930;28;20041;-81
2021/07/18 07:56:07;;;;;;;6.75;4.03;;;;;;;;;;5010399;28;20103;-81
2021/07/18 07:58:33;;;;;;;8.82;4.38;;;;;;;;;;5028660;28;20095;-81
2021/07/18 08:00:59;;;;;;;7.63;4.35;;;;;;;;;;5037102;28;20038;-81
2021/07/18 08:03:25;;;;;;;7.93;4.80;;;;;;;;;;4991133;28;20030;-82
2021/07/18 08:05:51;;;;;;;7.85;3.90;;;;;;;;;;4997368;28;20042;-81
2021/07/18 08:08:16;;;;;;;7.40;3.75;;;;;;;;;;5030834;28;20041;-81
2021/07/18 08:10:42;;;;;;;5.97;3.30;;;;;;;;;;4977764;28;20072;-81
2021/07/18 08:13:07;;;;;;;4.47;2.67;;;;;;;;;;4977911;28;20061;-81
2021/07/18 08:15:34;;;;;;;5.90;3.40;;;;;;;;;;4962070;28;20042;-81
2021/07/18 08:17:59;;;;;;;8.18;3.20;;;;;;;;;;4962245;28;20038;-81
2021/07/18 08:20:25;;;;;;;4.88;3.03;;;;;;;;;;4961740;28;20095;-81
2021/07/18 08:22:51;;;;;;;5.35;3.25;;;;;;;;;;4978006;28;20088;-82
2021/07/18 08:25:17;;;;;;;7.28;3.30;;;;;;;;;;4981294;28;20462;-81
2021/07/18 08:27:43;;;;;;;6.22;2.42;;;;;;;;;;5040758;28;20034;-80
2021/07/18 08:30:09;;;;;;;6.10;2.85;;;;;;;;;;5010348;28;20037;-81
2021/07/18 08:32:35;;;;;;;4.78;3.20;;;;;;;;;;5006551;28;20038;-80
2021/07/18 08:35:03;;;;;;;9.68;4.80;;;;;;;;;;5000892;28;20202;-81
2021/07/18 08:37:29;;;;;;;13.20;6.82;;;;;;;;;;4995902;28;20034;-81
2021/07/18 08:39:55;;;;;;;10.07;4.78;;;;;;;;;;5015170;28;20041;-81
2021/07/18 08:42:20;;;;;;;8.43;4.10;;;;;;;;;;4989303;28;20038;-80
2021/07/18 08:44:46;;;;;;;8.75;4.03;;;;;;;;;;4990504;28;20420;-81
2021/07/18 08:47:11;;;;;;;6.85;3.47;;;;;;;;;;5007553;28;20461;-81
2021/07/18 08:49:41;;;;;;;6.70;2.55;;;;;;;;;;4992929;28;20034;-81
2021/07/18 08:52:07;;;;;;;5.47;2.63;;;;;;;;;;5009141;28;20050;-80
2021/07/18 08:54:32;;;;;;;7.20;2.78;;;;;;;;;;5016844;28;20041;-80
2021/07/18 08:57:00;;;;;;;5.97;2.20;;;;;;;;;;5025666;28;20033;-81
2021/07/18 08:59:27;;;;;;;5.00;2.30;;;;;;;;;;5025304;28;20084;-81
2021/07/18 09:01:53;;;;;;;5.60;2.95;;;;;;;;;;5010098;28;20500;-81
2021/07/18 09:04:19;;;;;;;6.82;2.10;;;;;;;;;;5007446;28;20030;-81
2021/07/18 09:06:46;;;;;;;5.68;2.70;;;;;;;;;;5008473;28;20449;-82
2021/07/18 09:09:15;;;;;;;5.85;2.47;;;;;;;;;;4994209;28;20042;-81
2021/07/18 09:11:42;;;;;;;3.78;2.33;;;;;;;;;;4993479;28;20038;-82
2021/07/18 09:14:08;;;;;;;4.47;2.65;;;;;;;;;;4993661;28;20041;-81
2021/07/18 09:16:40;;;;;;;8.27;2.33;;;;;;;;;;5010244;28;20045;-82
2021/07/18 09:19:16;;;;;;;4.85;2.47;;;;;;;;;;4993440;28;20046;-82
2021/07/18 09:21:57;;;;;;;7.75;2.83;;;;;;;;;;5009356;28;20030;-81
2021/07/18 09:24:28;;;;;;;5.07;2.60;;;;;;;;;;5012386;28;20038;-83
2021/07/18 09:27:25;;;;;;;6.38;1.90;;;;;;;;;;5010443;28;20188;-80
2021/07/18 09:30:11;;;;;;;4.32;2.10;;;;;;;;;;5000722;28;20101;-82
2021/07/18 09:32:43;;;;;;;5.10;2.05;;;;;;;;;;4993374;28;20464;-81
2021/07/18 09:35:17;;;;;;;5.22;2.47;;;;;;;;;;4982288;28;20442;-81
2021/07/18 09:37:45;;;;;;;4.30;1.77;;;;;;;;;;5034105;28;20031;-81
2021/07/18 09:40:15;;;;;;;4.75;3.30;;;;;;;;;;5028661;28;20041;-81
2021/07/18 09:42:46;;;;;;;5.20;2.97;;;;;;;;;;5012370;28;20060;-81
2021/07/18 09:45:12;;;;;;;5.97;3.13;;;;;;;;;;4993240;28;20481;-81
2021/07/18 09:48:04;;;;;;;5.53;2.40;;;;;;;;;;5025913;28;20034;-81
2021/07/18 09:50:29;;;;;;;3.55;2.38;;;;;;;;;;5006570;28;20050;-80
2021/07/18 09:53:12;;;;;;;4.68;2.40;;;;;;;;;;5025855;28;20524;-81
2021/07/18 09:55:39;;;;;;;6.28;3.83;;;;;;;;;;5010073;28;20057;-80
2021/07/18 09:58:05;;;;;;;6.38;4.03;;;;;;;;;;5009881;28;20030;-80
2021/07/18 10:00:43;;;;;;;6.13;3.50;;;;;;;;;;5012146;28;20092;-81
2021/07/18 10:03:10;;;;;;;6.90;4.03;;;;;;;;;;5012355;28;20080;-81
2021/07/18 10:05:35;;;;;;;4.78;3.40;;;;;;;;;;4995910;28;20119;-81
2021/07/18 10:08:08;;;;;;;5.15;3.22;;;;;;;;;;4980316;28;20492;-81
2021/07/18 10:10:34;;;;;;;4.78;2.78;;;;;;;;;;4980010;28;20045;-80
2021/07/18 10:13:01;;;;;;;5.25;3.83;;;;;;;;;;4992174;28;20030;-81
2021/07/18 10:15:26;;;;;;;5.80;3.47;;;;;;;;;;5009515;28;20052;-81
2021/07/18 10:17:51;;;;;;;6.68;4.10;;;;;;;;;;4992150;28;20397;-81
2021/07/18 10:20:17;;;;;;;4.28;3.28;;;;;;;;;;5008430;28;20038;-80
2021/07/18 10:22:43;;;;;;;6.78;4.05;;;;;;;;;;5025943;28;20096;-81
2021/07/18 10:25:09;;;;;;;5.68;4.03;;;;;;;;;;5038413;28;20124;-80
2021/07/18 10:27:35;;;;;;;5.32;2.88;;;;;;;;;;4999344;28;20091;-82
2021/07/18 10:30:00;;;;;;;4.57;2.80;;;;;;;;;;4984754;28;20042;-81
2021/07/18 10:32:25;;;;;;;3.42;2.35;;;;;;;;;;5042924;28;20041;-79
2021/07/18 10:34:52;;;;;;;5.00;2.20;;;;;;;;;;5028264;28;20069;-79
2021/07/18 10:37:17;;;;;;;5.13;2.70;;;;;;;;;;5032965;28;20389;-79
2021/07/18 10:39:43;;;;;;;5.78;2.38;;;;;;;;;;5012062;28;20061;-79
2021/07/18 10:42:31;;;;;;;3.70;2.13;;;;;;;;;;5011336;28;20034;-79
2021/07/18 10:44:56;;;;;;;5.28;2.85;;;;;;;;;;5028449;28;20057;-79
2021/07/18 10:47:22;;;;;;;4.45;2.67;;;;;;;;;;5028567;28;20396;-79
2021/07/18 10:49:57;;;;;;;5.13;2.53;;;;;;;;;;4998297;28;20488;-80
2021/07/18 10:52:28;;;;;;;3.97;2.60;;;;;;;;;;5021979;28;20034;-80
2021/07/18 10:54:53;;;;;;;3.42;2.30;;;;;;;;;;5034709;28;20124;-80
2021/07/18 10:57:32;;;;;;;4.25;2.67;;;;;;;;;;4995937;28;20156;-79
2021/07/18 11:00:16;;;;;;;5.38;3.17;;;;;;;;;;4993573;28;20030;-79
2021/07/18 11:02:42;;;;;;;4.13;2.25;;;;;;;;;;4991984;28;20041;-80
2021/07/18 11:05:07;;;;;;;3.75;2.47;;;;;;;;;;5017992;28;20042;-80
2021/07/18 11:07:38;;;;;;;4.65;1.90;;;;;;;;;;5000999;28;20592;-80
2021/07/18 11:10:12;;;;;;;3.90;2.33;;;;;;;;;;5009044;28;20488;-79
2021/07/18 11:12:42;;;;;;;3.65;1.92;;;;;;;;;;5008568;28;20043;-79
2021/07/18 11:15:20;;;;;;;5.38;2.42;;;;;;;;;;5013931;28;20042;-79
2021/07/18 11:18:15;;;;;;;6.03;2.50;;;;;;;;;;5008411;28;20049;-79
2021/07/18 11:20:47;;;;;;;3.63;2.42;;;;;;;;;;4995934;28;20037;-79
2021/07/18 11:23:13;;;;;;;3.60;2.42;;;;;;;;;;5026299;28;20025;-79
2021/07/18 11:25:45;;;;;;;4.30;2.45;;;;;;;;;;5037374;28;20504;-79
2021/07/18 11:28:30;;;;;;;4.97;2.80;;;;;;;;;;4997274;28;20049;-79
2021/07/18 11:31:26;;;;;;;3.53;2.40;;;;;;;;;;5023976;28;20055;-79
2021/07/18 11:33:53;;;;;;;5.68;2.30;;;;;;;;;;5017471;28;20080;-80
2021/07/18 11:36:23;;;;;;;4.72;2.90;;;;;;;;;;5014192;28;20040;-79
2021/07/18 11:38:49;;;;;;;5.07;3.03;;;;;;;;;;5005248;28;20377;-79
2021/07/18 11:41:28;;;;;;;4.78;3.45;;;;;;;;;;5010979;28;20033;-79
2021/07/18 11:43:54;;;;;;;4.97;3.25;;;;;;;;;;5027394;28;20065;-79
2021/07/18 11:46:21;;;;;;;6.28;3.08;;;;;;;;;;4994742;28;20132;-79
2021/07/18 11:48:50;;;;;;;5.03;3.15;;;;;;;;;;5011076;28;20038;-79
2021/07/18 11:51:22;;;;;;;4.97;2.72;;;;;;;;;;5027129;28;20045;-80
2021/07/18 11:53:47;;;;;;;5.60;3.35;;;;;;;;;;5010966;28;20107;-79
2021/07/18 11:56:21;;;;;;;6.03;3.13;;;;;;;;;;4984702;28;20497;-80
2021/07/18 11:58:46;;;;;;;5.78;3.17;;;;;;;;;;5007348;28;20521;-80
2021/07/18 12:01:12;;;;;;;5.30;3.50;;;;;;;;;;5010691;28;20042;-79
2021/07/18 12:03:37;;;;;;;6.70;3.70;;;;;;;;;;5010452;28;20116;-79
2021/07/18 12:06:03;;;;;;;4.95;3.03;;;;;;;;;;5008910;28;20409;-80
2021/07/18 12:08:28;;;;;;;5.55;3.55;;;;;;;;;;4978295;28;20030;-80
2021/07/18 12:11:04;;;;;;;5.43;3.05;;;;;;;;;;4992604;28;20083;-80
2021/07/18 12:13:37;;;;;;;5.38;3.10;;;;;;;;;;4977837;28;20070;-79
2021/07/18 12:16:04;;;;;;;6.55;3.63;;;;;;;;;;4976111;28;20670;-79
2021/07/18 12:18:30;;;;;;;4.25;2.72;;;;;;;;;;5022086;28;20068;-79
2021/07/18 12:21:34;;;;;;;5.97;3.65;;;;;;;;;;5021192;28;20058;-79
2021/07/18 12:24:21;;;;;;;5.10;3.28;;;;;;;;;;4996826;28;20034;-79
2021/07/18 12:26:47;;;;;;;5.28;3.20;;;;;;;;;;4994762;28;20131;-79
2021/07/18 12:29:13;;;;;;;5.50;3.10;;;;;;;;;;5010584;28;20049;-79
2021/07/18 12:31:40;;;;;;;5.00;2.90;;;;;;;;;;5010419;28;20049;-80
2021/07/18 12:34:06;;;;;;;4.25;2.88;;;;;;;;;;4994108;28;20040;-79
2021/07/18 12:36:32;;;;;;;3.30;2.80;;;;;;;;;;5029160;28;20033;-79
2021/07/18 12:39:16;;;;;;;4.22;2.58;;;;;;;;;;5030021;28;20068;-79
2021/07/18 12:41:42;;;;;;;4.25;3.05;;;;;;;;;;4999989;28;20030;-79
2021/07/18 12:44:07;;;;;;;4.68;3.03;;;;;;;;;;4986986;28;20459;-79
2021/07/18 12:46:33;;;;;;;5.72;3.28;;;;;;;;;;5039565;28;20040;-79
2021/07/18 12:49:08;;;;;;;4.00;2.67;;;;;;;;;;5049252;28;20056;-79
2021/07/18 12:51:34;;;;;;;4.03;2.55;;;;;;;;;;4997948;28;20512;-79
2021/07/18 12:53:59;;;;;;;3.97;2.58;;;;;;;;;;4965641;28;20033;-79
2021/07/18 12:56:25;;;;;;;4.45;2.38;;;;;;;;;;4981234;28;20085;-79
2021/07/18 12:58:51;;;;;;;3.50;2.67;;;;;;;;;;5030560;28;20046;-79
2021/07/18 13:01:18;;;;;;;3.60;2.60;;;;;;;;;;5014367;28;20092;-79
2021/07/18 13:03:43;;;;;;;3.97;2.42;;;;;;;;;;4997714;28;20408;-79
2021/07/18 13:06:19;;;;;;;4.38;2.10;;;;;;;;;;5013840;28;20045;-79
2021/07/18 13:08:52;;;;;;;4.47;2.45;;;;;;;;;;4981694;28;20508;-78
2021/07/18 13:11:32;;;;;;;4.78;2.75;;;;;;;;;;5013430;28;20042;-79
2021/07/18 13:13:58;;;;;;;3.47;2.40;;;;;;;;;;5013728;28;20124;-79
2021/07/18 13:16:33;;;;;;;5.53;3.47;;;;;;;;;;5005416;28;20744;-79
2021/07/18 13:19:09;;;;;;;5.50;2.75;;;;;;;;;;5016835;28;20029;-79
2021/07/18 13:21:34;;;;;;;4.07;2.90;;;;;;;;;;5001205;28;20042;-79
2021/07/18 13:24:00;;;;;;;4.78;3.05;;;;;;;;;;5017016;28;20492;-79
2021/07/18 13:26:39;;;;;;;3.55;2.67;;;;;;;;;;5013868;28;20439;-79
2021/07/18 13:29:20;;;;;;;3.38;2.72;;;;;;;;;;4993573;28;20038;-80
2021/07/18 13:31:47;;;;;;;5.15;3.28;;;;;;;;;;5010214;28;20405;-80
2021/07/18 13:34:13;;;;;;;4.00;2.70;;;;;;;;;;4977667;28;20077;-79
2021/07/18 13:36:39;;;;;;;4.22;3.03;;;;;;;;;;5002778;28;20033;-79
2021/07/18 13:39:09;;;;;;;5.75;3.47;;;;;;;;;;4987814;28;20037;-79
2021/07/18 13:41:35;;;;;;;5.75;3.13;;;;;;;;;;4996907;28;20489;-79
2021/07/18 13:44:02;;;;;;;4.32;2.95;;;;;;;;;;4980690;28;20133;-79
2021/07/18 13:46:28;;;;;;;6.47;3.65;;;;;;;;;;5030000;28;20045;-79
2021/07/18 13:48:54;;;;;;;4.55;3.40;;;;;;;;;;5029401;28;20488;-79
2021/07/18 13:51:19;;;;;;;4.32;2.70;;;;;;;;;;4964135;28;20038;-79
2021/07/18 13:53:45;;;;;;;6.15;2.97;;;;;;;;;;4985113;28;20037;-79
2021/07/18 13:56:11;;;;;;;3.65;2.95;;;;;;;;;;4999832;28;20120;-79
2021/07/18 13:58:37;;;;;;;5.00;3.50;;;;;;;;;;5011687;28;20041;-79
2021/07/18 14:01:02;;;;;;;6.18;2.85;;;;;;;;;;5029442;28;20033;-79
2021/07/18 14:03:27;;;;;;;5.82;2.60;;;;;;;;;;5029682;28;20030;-79
2021/07/18 14:05:53;;;;;;;5.15;3.13;;;;;;;;;;5018470;28;20042;-79
2021/07/18 14:08:18;;;;;;;4.45;2.78;;;;;;;;;;5046919;28;20059;-79
2021/07/18 14:10:44;;;;;;;5.13;3.30;;;;;;;;;;5014420;28;20404;-79
2021/07/18 14:13:10;;;;;;;5.25;2.92;;;;;;;;;;5012734;28;20555;-79
2021/07/18 14:15:35;;;;;;;3.88;2.75;;;;;;;;;;5013460;28;20895;-79
2021/07/18 14:18:02;;;;;;;3.75;3.03;;;;;;;;;;5032081;28;20075;-79
2021/07/18 14:20:28;;;;;;;3.80;2.80;;;;;;;;;;5028874;28;20045;-79
2021/07/18 14:22:54;;;;;;;3.97;3.13;;;;;;;;;;5012656;28;20408;-79
2021/07/18 14:25:23;;;;;;;6.97;3.25;;;;;;;;;;5007939;28;20404;-79
2021/07/18 14:27:51;;;;;;;3.38;3.00;;;;;;;;;;5012123;28;20029;-79
2021/07/18 14:30:18;;;;;;;6.22;3.40;;;;;;;;;;5012480;28;20057;-79
2021/07/18 14:32:44;;;;;;;5.20;3.03;;;;;;;;;;5013316;28;20038;-79
2021/07/18 14:35:10;;;;;;;5.13;3.28;;;;;;;;;;4995971;28;20519;-79
2021/07/18 14:37:38;;;;;;;3.88;3.22;;;;;;;;;;5025810;28;20030;-79
2021/07/18 14:40:05;;;;;;;4.82;2.85;;;;;;;;;;5017846;28;20038;-80
2021/07/18 14:42:30;;;;;;;4.55;2.97;;;;;;;;;;5018876;28;20034;-79
2021/07/18 14:44:56;;;;;;;5.32;3.47;;;;;;;;;;4990292;28;20061;-79